Time;durP1;ratioP1;P1;durP2;ratioP2;P2;SDS_P1;SDS_P2;PMS_P1;PMS_P2;Temp;Humidity;BMP_temperature;BMP_pressure;BME280_temperature;BME280_humidity;BME280_pressure;Samples;Min_cycle;Max_cycle;Signal;HPM_P1;HPM_P2
2022/03/17 00:01:51;;;;;;;13.75;3.28;;;3.40;99.90;;;;;;5007775;28;20038;-57
2022/03/17 00:04:21;;;;;;;14.83;3.60;;;3.30;99.90;;;;;;5008257;28;20057;-58
2022/03/17 00:06:50;;;;;;;15.63;4.30;;;3.40;99.90;;;;;;5009214;28;20518;-57
2022/03/17 00:09:18;;;;;;;16.80;3.17;;;3.40;99.90;;;;;;5010510;28;20401;-58
2022/03/17 00:11:49;;;;;;;10.98;2.95;;;3.40;99.90;;;;;;5010370;28;20050;-58
2022/03/17 00:14:18;;;;;;;14.30;2.90;;;3.30;99.90;;;;;;4999995;28;20048;-60
2022/03/17 00:16:46;;;;;;;6.05;2.60;;;3.20;99.90;;;;;;5010134;28;20050;-58
2022/03/17 00:19:15;;;;;;;8.90;2.15;;;3.20;99.90;;;;;;5010815;28;20060;-58
2022/03/17 00:21:43;;;;;;;12.18;2.80;;;3.20;99.90;;;;;;5009815;28;20049;-59
2022/03/17 00:24:14;;;;;;;13.13;2.20;;;3.10;99.90;;;;;;5011268;28;20497;-58
2022/03/17 00:26:42;;;;;;;17.75;2.75;;;3.10;99.90;;;;;;5010760;28;20042;-58
2022/03/17 00:29:11;;;;;;;7.07;2.17;;;3.10;99.90;;;;;;5003063;28;20130;-57
2022/03/17 00:31:39;;;;;;;6.03;2.13;;;3.10;99.90;;;;;;5006290;28;20052;-58
2022/03/17 00:34:08;;;;;;;12.52;2.70;;;3.20;99.90;;;;;;5010676;28;20042;-58
2022/03/17 00:36:36;;;;;;;16.73;3.10;;;3.10;99.90;;;;;;5011267;28;20056;-58
2022/03/17 00:39:08;;;;;;;15.00;3.55;;;3.10;99.90;;;;;;5010690;28;20050;-57
2022/03/17 00:41:40;;;;;;;6.38;2.25;;;3.10;99.90;;;;;;5010585;28;20049;-60
2022/03/17 00:44:16;;;;;;;9.90;3.00;;;3.10;99.90;;;;;;5007705;28;20041;-59
2022/03/17 00:46:44;;;;;;;10.93;3.10;;;3.10;99.90;;;;;;5010627;28;20053;-59
2022/03/17 00:49:18;;;;;;;15.27;3.67;;;3.00;99.90;;;;;;5010353;28;20054;-58
2022/03/17 00:51:46;;;;;;;10.40;2.53;;;3.00;99.90;;;;;;5010923;28;20049;-58
2022/03/17 00:54:18;;;;;;;11.75;2.80;;;3.00;99.90;;;;;;5010480;28;20042;-59
2022/03/17 00:56:46;;;;;;;12.50;2.75;;;2.90;99.90;;;;;;5010408;28;20053;-58
2022/03/17 00:59:17;;;;;;;11.07;2.88;;;2.90;99.90;;;;;;5004984;28;20042;-59
2022/03/17 01:01:46;;;;;;;11.73;3.28;;;2.90;99.90;;;;;;5009306;28;20042;-59
2022/03/17 01:04:20;;;;;;;10.50;3.90;;;2.90;99.90;;;;;;5005312;28;20052;-58
2022/03/17 01:06:49;;;;;;;12.43;3.35;;;2.90;99.90;;;;;;4987223;28;20478;-58
2022/03/17 01:09:17;;;;;;;6.95;2.78;;;2.80;99.90;;;;;;5005224;28;20050;-59
2022/03/17 01:11:48;;;;;;;9.52;2.50;;;2.80;99.90;;;;;;5010057;28;20038;-60
2022/03/17 01:14:16;;;;;;;11.15;3.08;;;2.80;99.90;;;;;;5005389;28;20042;-60
2022/03/17 01:16:47;;;;;;;13.95;2.78;;;2.80;99.90;;;;;;4991029;28;20046;-58
2022/03/17 01:19:17;;;;;;;12.45;3.58;;;2.70;99.90;;;;;;5004854;28;20053;-59
2022/03/17 01:21:46;;;;;;;11.05;3.45;;;2.70;99.90;;;;;;5008515;28;20049;-59
2022/03/17 01:24:18;;;;;;;8.60;1.92;;;2.70;99.90;;;;;;5002829;28;20822;-58
2022/03/17 01:26:46;;;;;;;9.52;3.30;;;2.60;99.90;;;;;;5010220;28;20041;-59
2022/03/17 01:29:22;;;;;;;11.02;4.15;;;2.60;99.90;;;;;;5015069;28;20061;-59
2022/03/17 01:31:51;;;;;;;17.93;3.87;;;2.60;99.90;;;;;;5024434;28;20041;-57
2022/03/17 01:34:25;;;;;;;21.10;5.80;;;2.60;99.90;;;;;;5029216;28;20523;-58
2022/03/17 01:36:58;;;;;;;17.90;5.60;;;2.60;99.90;;;;;;5027162;28;20366;-59
2022/03/17 01:39:31;;;;;;;19.58;6.03;;;2.60;99.90;;;;;;5008382;28;20052;-58
2022/03/17 01:42:03;;;;;;;21.80;6.88;;;2.60;99.90;;;;;;5026272;28;20053;-57
2022/03/17 01:44:32;;;;;;;16.52;5.80;;;2.50;99.90;;;;;;5025065;28;20049;-58
2022/03/17 01:50:06;;;;;;;14.93;3.83;;;2.50;99.90;;;;;;5025862;28;20060;-58
2022/03/17 01:52:48;;;;;;;8.38;3.22;;;2.40;99.90;;;;;;5025856;28;20050;-57
2022/03/17 01:55:17;;;;;;;11.38;4.85;;;2.40;99.90;;;;;;5024457;28;20041;-58
2022/03/17 01:57:46;;;;;;;18.80;5.40;;;2.40;99.90;;;;;;5025720;28;20037;-57
2022/03/17 02:00:18;;;;;;;6.80;3.05;;;2.40;99.90;;;;;;5018719;28;20052;-58
2022/03/17 02:02:48;;;;;;;12.32;4.68;;;2.40;99.90;;;;;;5025569;28;20056;-59
2022/03/17 02:05:17;;;;;;;12.73;2.60;;;2.40;99.90;;;;;;5025256;28;20049;-58
2022/03/17 02:07:52;;;;;;;9.35;3.15;;;2.40;99.90;;;;;;5020483;28;20045;-58
2022/03/17 02:10:22;;;;;;;8.18;2.53;;;2.30;99.90;;;;;;5026048;28;20389;-58
2022/03/17 02:13:09;;;;;;;8.85;3.00;;;2.30;99.90;;;;;;5025659;28;20065;-58
2022/03/17 02:15:38;;;;;;;6.38;1.67;;;2.30;99.90;;;;;;5000412;28;20056;-58
2022/03/17 02:18:06;;;;;;;11.68;2.67;;;2.20;99.90;;;;;;5025105;28;20058;-58
2022/03/17 02:20:38;;;;;;;13.38;2.17;;;2.30;99.90;;;;;;5024960;28;20049;-58
2022/03/17 02:26:04;;;;;;;10.60;2.03;;;2.20;99.90;;;;;;5024902;28;20050;-57
2022/03/17 02:28:32;;;;;;;9.80;1.98;;;2.20;99.90;;;;;;5025012;28;20405;-59
2022/03/17 02:31:06;;;;;;;9.30;1.88;;;2.10;99.90;;;;;;5014731;28;20057;-58
2022/03/17 02:33:40;;;;;;;8.65;2.72;;;2.10;99.90;;;;;;5025346;28;20045;-58
2022/03/17 02:36:08;;;;;;;5.95;1.88;;;2.10;99.90;;;;;;5028885;28;20061;-58
2022/03/17 02:38:37;;;;;;;8.00;1.70;;;2.00;99.90;;;;;;5028300;28;20493;-58
2022/03/17 02:41:05;;;;;;;12.87;1.90;;;2.00;99.90;;;;;;5028608;28;20050;-58
2022/03/17 02:43:38;;;;;;;;;;;1.90;99.90;;;;;;5028209;28;20045;-58
2022/03/17 02:46:06;;;;;;;6.82;1.73;;;1.90;99.90;;;;;;5028860;28;19945;-57
2022/03/17 02:48:34;;;;;;;6.85;1.77;;;1.80;99.90;;;;;;5024995;28;20053;-57
2022/03/17 02:51:02;;;;;;;8.90;2.10;;;1.80;99.90;;;;;;5028747;28;20053;-58
2022/03/17 02:53:31;;;;;;;10.68;1.30;;;1.80;99.90;;;;;;5014513;28;20056;-58
2022/03/17 02:56:00;;;;;;;8.90;2.67;;;1.70;99.90;;;;;;5029839;28;20046;-58
2022/03/17 02:58:27;;;;;;;3.13;1.27;;;1.70;99.90;;;;;;5030426;28;20056;-58
2022/03/17 03:00:55;;;;;;;4.30;1.25;;;1.70;99.90;;;;;;5031208;28;20047;-58
2022/03/17 03:03:24;;;;;;;7.73;1.47;;;1.60;99.90;;;;;;5030903;28;20072;-58
2022/03/17 03:05:52;;;;;;;5.13;1.73;;;1.60;99.90;;;;;;5031263;28;20303;-58
2022/03/17 03:08:19;;;;;;;8.15;1.65;;;1.60;99.90;;;;;;5031134;28;20052;-58
2022/03/17 03:10:47;;;;;;;5.97;1.60;;;1.60;99.90;;;;;;5031383;28;20397;-58
2022/03/17 03:13:15;;;;;;;7.22;1.17;;;1.50;99.90;;;;;;5030752;28;20042;-58
2022/03/17 03:15:43;;;;;;;10.40;1.83;;;1.60;99.90;;;;;;5031390;28;20038;-59
2022/03/17 03:18:11;;;;;;;3.13;1.25;;;1.60;99.90;;;;;;5031596;28;20551;-58
2022/03/17 03:20:39;;;;;;;4.45;1.33;;;1.50;99.90;;;;;;5024165;28;20053;-59
2022/03/17 03:23:07;;;;;;;6.63;1.45;;;1.50;99.90;;;;;;5029791;28;20050;-59
2022/03/17 03:25:34;;;;;;;6.88;2.50;;;1.40;99.90;;;;;;5029636;28;20405;-58
2022/03/17 03:28:06;;;;;;;7.78;3.30;;;1.40;99.90;;;;;;5031327;28;20493;-59
2022/03/17 03:30:36;;;;;;;7.10;1.85;;;1.40;99.90;;;;;;5028545;28;20052;-59
2022/03/17 03:33:05;;;;;;;3.05;2.13;;;1.30;99.90;;;;;;5031346;28;20056;-59
2022/03/17 03:38:20;;;;;;;11.90;1.92;;;1.30;99.90;;;;;;5030855;28;19921;-59
2022/03/17 03:40:48;;;;;;;9.25;1.63;;;1.30;99.90;;;;;;4981785;28;20073;-58
2022/03/17 03:43:15;;;;;;;10.10;1.98;;;1.30;99.90;;;;;;5031780;28;20493;-58
2022/03/17 03:45:43;;;;;;;4.95;1.67;;;1.00;99.90;;;;;;5035161;28;20052;-58
2022/03/17 03:48:11;;;;;;;7.35;1.98;;;1.30;99.90;;;;;;5034338;28;20048;-59
2022/03/17 03:50:39;;;;;;;11.25;1.92;;;1.30;99.90;;;;;;5035149;28;20050;-59
2022/03/17 03:53:07;;;;;;;27.58;3.65;;;1.30;99.90;;;;;;5035207;28;20053;-58
2022/03/17 03:55:34;;;;;;;5.82;1.30;;;1.30;99.90;;;;;;5034689;28;20041;-58
2022/03/17 03:58:02;;;;;;;5.18;1.83;;;1.30;99.90;;;;;;5034312;28;20064;-58
2022/03/17 04:00:33;;;;;;;8.95;2.05;;;1.30;99.90;;;;;;5034651;28;20052;-58
2022/03/17 04:03:06;;;;;;;3.80;1.48;;;1.30;99.90;;;;;;5034733;28;20029;-58
2022/03/17 04:05:34;;;;;;;8.00;2.28;;;1.30;99.90;;;;;;5035015;28;20060;-58
2022/03/17 04:08:02;;;;;;;10.55;2.03;;;1.30;99.90;;;;;;5034719;28;20045;-57
2022/03/17 04:10:30;;;;;;;6.13;1.43;;;1.30;99.90;;;;;;5023419;28;20104;-57
2022/03/17 04:12:58;;;;;;;8.40;1.95;;;1.40;99.90;;;;;;5034173;28;20053;-59
2022/03/17 04:15:26;;;;;;;8.73;1.55;;;1.30;99.90;;;;;;5034667;28;20052;-59
2022/03/17 04:17:53;;;;;;;8.82;1.95;;;1.30;99.90;;;;;;5034262;28;20059;-58
2022/03/17 04:20:22;;;;;;;12.13;2.05;;;1.30;99.90;;;;;;5034127;28;20503;-58
2022/03/17 04:22:50;;;;;;;6.72;1.60;;;1.30;99.90;;;;;;5034421;28;20042;-58
2022/03/17 04:25:18;;;;;;;4.43;1.40;;;1.30;99.90;;;;;;5034154;28;20041;-58
2022/03/17 04:27:45;;;;;;;6.32;1.30;;;1.30;99.90;;;;;;5034150;28;20050;-58
2022/03/17 04:30:13;;;;;;;14.75;2.55;;;1.30;99.90;;;;;;5012142;28;20050;-57
2022/03/17 04:32:41;;;;;;;6.40;1.30;;;1.30;99.90;;;;;;5012834;28;20061;-57
2022/03/17 04:35:09;;;;;;;7.15;2.30;;;1.30;99.90;;;;;;5013603;28;20042;-58
2022/03/17 04:37:37;;;;;;;6.75;1.70;;;1.40;99.90;;;;;;5011703;28;20401;-58
2022/03/17 04:40:05;;;;;;;6.65;1.60;;;1.40;99.90;;;;;;5012922;28;20046;-58
2022/03/17 04:42:33;;;;;;;6.57;1.40;;;1.40;99.90;;;;;;5012915;28;20045;-58
2022/03/17 04:45:01;;;;;;;3.65;1.10;;;1.40;99.90;;;;;;5013078;28;20042;-58
2022/03/17 04:47:31;;;;;;;5.72;1.30;;;1.40;99.90;;;;;;5012813;28;20049;-58
2022/03/17 04:49:59;;;;;;;6.63;2.10;;;1.50;99.90;;;;;;5012735;28;20049;-58
2022/03/17 04:55:19;;;;;;;9.07;1.10;;;1.60;99.90;;;;;;5012682;28;20044;-58
2022/03/17 04:57:47;;;;;;;6.70;2.00;;;1.60;99.90;;;;;;5011371;28;20086;-58
2022/03/17 05:00:15;;;;;;;6.05;1.27;;;1.70;99.90;;;;;;5012569;28;20421;-57
2022/03/17 05:02:43;;;;;;;11.10;2.60;;;1.70;99.90;;;;;;5012575;28;20042;-58
2022/03/17 05:05:11;;;;;;;9.15;1.90;;;1.80;99.90;;;;;;5012268;28;20057;-57
2022/03/17 05:07:38;;;;;;;6.13;1.30;;;1.80;99.90;;;;;;5012521;28;20054;-58
2022/03/17 05:10:07;;;;;;;11.43;2.22;;;1.90;99.90;;;;;;5012309;28;20041;-58
2022/03/17 05:12:35;;;;;;;4.80;1.38;;;1.90;99.90;;;;;;5012508;28;20054;-58
2022/03/17 05:15:03;;;;;;;7.45;1.08;;;1.90;99.90;;;;;;5012378;28;20502;-57
2022/03/17 05:17:32;;;;;;;10.55;1.50;;;1.90;99.90;;;;;;5012347;28;20041;-57
2022/03/17 05:20:00;;;;;;;5.95;2.28;;;1.90;99.90;;;;;;5012434;28;20045;-56
2022/03/17 05:22:28;;;;;;;4.15;1.40;;;1.90;99.90;;;;;;5012937;28;20441;-57
2022/03/17 05:24:56;;;;;;;6.95;1.95;;;1.90;99.90;;;;;;5010149;28;20034;-58
2022/03/17 05:27:25;;;;;;;8.15;1.50;;;1.90;99.90;;;;;;5012151;28;20042;-58
2022/03/17 05:29:52;;;;;;;1.97;1.20;;;1.80;99.90;;;;;;4980592;28;1343701;-58
2022/03/17 05:32:20;;;;;;;11.55;1.58;;;1.80;99.90;;;;;;5033216;28;20046;-58
2022/03/17 05:34:48;;;;;;;13.15;1.80;;;1.70;99.90;;;;;;5032784;28;20049;-58
2022/03/17 05:37:15;;;;;;;11.05;1.80;;;1.70;99.90;;;;;;5033093;28;20056;-58
2022/03/17 05:39:43;;;;;;;13.68;2.22;;;1.70;99.90;;;;;;5032687;28;20481;-59
2022/03/17 05:42:11;;;;;;;8.48;1.58;;;1.60;99.90;;;;;;5032792;28;20041;-58
2022/03/17 05:44:39;;;;;;;5.45;1.52;;;1.60;99.90;;;;;;5032651;28;20038;-59
2022/03/17 05:47:07;;;;;;;11.45;1.67;;;1.60;99.90;;;;;;5014164;28;20045;-59
2022/03/17 05:49:34;;;;;;;13.82;2.38;;;1.60;99.90;;;;;;5011463;28;20405;-60
2022/03/17 05:52:03;;;;;;;2.85;1.27;;;1.60;99.90;;;;;;5028453;28;20054;-57
2022/03/17 05:54:30;;;;;;;10.02;1.92;;;1.60;99.90;;;;;;5029301;28;20049;-59
2022/03/17 05:56:58;;;;;;;7.75;2.00;;;1.60;99.90;;;;;;5028682;28;20052;-59
2022/03/17 05:59:25;;;;;;;7.47;4.70;;;1.50;99.90;;;;;;5028258;28;20057;-59
2022/03/17 06:01:53;;;;;;;8.45;2.17;;;1.50;99.90;;;;;;5023023;28;20383;-58
2022/03/17 06:04:41;;;;;;;12.38;3.78;;;1.40;99.90;;;;;;5008156;28;20153;-58
2022/03/17 06:07:10;;;;;;;13.05;3.78;;;1.40;99.90;;;;;;5008673;28;20050;-59
2022/03/17 06:09:41;;;;;;;9.90;2.28;;;1.30;99.90;;;;;;5029071;28;20053;-58
2022/03/17 06:12:09;;;;;;;7.88;1.90;;;1.30;99.90;;;;;;5025779;28;20044;-59
2022/03/17 06:14:37;;;;;;;14.02;3.28;;;1.20;99.90;;;;;;5028013;28;20060;-58
2022/03/17 06:17:05;;;;;;;11.77;3.22;;;1.30;99.90;;;;;;5028733;28;20382;-57
2022/03/17 06:19:32;;;;;;;10.77;3.10;;;1.30;99.90;;;;;;5022349;28;20517;-58
2022/03/17 06:22:00;;;;;;;11.98;3.10;;;1.20;99.90;;;;;;5026126;28;20045;-60
2022/03/17 06:24:28;;;;;;;13.63;3.90;;;1.10;99.90;;;;;;5024814;28;20057;-59
2022/03/17 06:26:56;;;;;;;13.15;3.53;;;1.10;99.90;;;;;;5026717;28;20068;-60
2022/03/17 06:29:23;;;;;;;19.13;3.78;;;1.10;99.90;;;;;;5014266;28;20045;-59
2022/03/17 06:31:51;;;;;;;7.30;3.00;;;1.00;99.90;;;;;;5026097;28;20052;-59
2022/03/17 06:34:19;;;;;;;14.70;2.80;;;1.00;99.90;;;;;;5016963;28;20437;-59
2022/03/17 06:36:47;;;;;;;6.93;2.30;;;1.00;99.90;;;;;;5025493;28;20050;-59
2022/03/17 06:39:15;;;;;;;12.82;2.38;;;0.90;99.90;;;;;;5025120;28;20056;-57
2022/03/17 06:41:43;;;;;;;11.57;3.10;;;0.80;99.90;;;;;;5026290;28;20042;-58
2022/03/17 06:44:10;;;;;;;9.43;2.70;;;0.90;99.90;;;;;;5028109;28;20398;-58
2022/03/17 06:46:38;;;;;;;5.82;2.65;;;0.80;99.90;;;;;;5027027;28;20400;-59
2022/03/17 06:49:05;;;;;;;8.45;3.55;;;0.80;99.90;;;;;;5011719;28;20038;-57
2022/03/17 06:51:34;;;;;;;18.27;3.65;;;0.80;99.90;;;;;;5023813;28;20421;-58
2022/03/17 06:54:04;;;;;;;10.88;2.85;;;0.80;99.90;;;;;;5006651;28;20397;-58
2022/03/17 06:56:31;;;;;;;20.55;3.53;;;0.80;99.90;;;;;;5025011;28;20049;-57
2022/03/17 06:58:59;;;;;;;10.05;3.20;;;0.80;99.90;;;;;;5024763;28;20037;-58
2022/03/17 07:01:27;;;;;;;10.98;2.65;;;0.80;99.90;;;;;;5024547;28;20489;-58
2022/03/17 07:03:55;;;;;;;10.35;3.58;;;0.80;99.90;;;;;;5015060;28;20512;-59
2022/03/17 07:06:23;;;;;;;13.85;3.22;;;0.80;99.90;;;;;;5019289;28;20444;-58
2022/03/17 07:08:53;;;;;;;12.07;3.53;;;0.80;99.90;;;;;;5024627;28;20141;-59
2022/03/17 07:11:22;;;;;;;15.75;4.45;;;0.90;99.90;;;;;;5024147;28;20038;-58
2022/03/17 07:13:49;;;;;;;14.32;4.85;;;1.00;99.90;;;;;;5024200;28;20056;-59
2022/03/17 07:16:18;;;;;;;12.85;4.45;;;1.00;99.90;;;;;;5024774;28;20045;-58
2022/03/17 07:18:46;;;;;;;;;;;1.10;99.90;;;;;;5017544;28;20037;-58
2022/03/17 07:21:14;;;;;;;10.63;4.28;;;1.20;99.90;;;;;;5018150;28;19928;-58
2022/03/17 07:23:42;;;;;;;14.02;4.22;;;1.30;99.90;;;;;;5023967;28;20064;-58
2022/03/17 07:26:12;;;;;;;16.88;4.78;;;1.30;99.90;;;;;;5021118;28;20037;-58
2022/03/17 07:28:39;;;;;;;16.75;4.60;;;1.40;99.90;;;;;;5011029;28;20061;-58
2022/03/17 07:31:07;;;;;;;11.75;4.25;;;1.50;99.90;;;;;;5018744;28;20416;-58
2022/03/17 07:33:35;;;;;;;17.65;5.28;;;1.50;99.90;;;;;;5019293;28;20049;-58
2022/03/17 07:36:04;;;;;;;22.50;6.07;;;1.70;99.90;;;;;;5021070;28;20049;-58
2022/03/17 07:38:32;;;;;;;18.33;5.15;;;1.80;99.90;;;;;;5022572;28;20416;-58
2022/03/17 07:41:00;;;;;;;21.58;5.28;;;1.90;99.90;;;;;;5021572;28;20045;-58
2022/03/17 07:43:28;;;;;;;24.25;4.32;;;2.00;99.90;;;;;;5022204;28;20057;-59
2022/03/17 07:46:14;;;;;;;14.82;3.50;;;2.10;99.90;;;;;;5017802;28;20508;-58
2022/03/17 07:49:03;;;;;;;16.80;3.70;;;2.30;99.90;;;;;;5012999;28;20038;-58
2022/03/17 07:51:37;;;;;;;12.48;3.80;;;2.40;99.90;;;;;;5004679;28;20076;-58
2022/03/17 07:54:05;;;;;;;19.92;3.03;;;2.60;99.90;;;;;;5023970;28;20401;-59
2022/03/17 07:56:36;;;;;;;21.08;3.58;;;2.70;99.90;;;;;;5022919;28;20053;-58
2022/03/17 07:59:08;;;;;;;16.92;3.55;;;2.90;99.90;;;;;;5022342;28;20041;-58
2022/03/17 08:01:36;;;;;;;14.52;3.67;;;3.00;99.90;;;;;;5023979;28;20045;-58
2022/03/17 08:04:04;;;;;;;11.07;3.10;;;3.10;99.90;;;;;;5017123;28;20054;-58
2022/03/17 08:06:36;;;;;;;21.17;2.97;;;3.20;99.90;;;;;;5004925;28;20401;-58
2022/03/17 08:09:07;;;;;;;8.45;3.03;;;3.30;99.90;;;;;;5020669;28;20053;-58
2022/03/17 08:11:36;;;;;;;14.65;2.60;;;3.40;99.90;;;;;;5023117;28;20041;-58
2022/03/17 08:14:04;;;;;;;12.05;3.03;;;3.50;99.90;;;;;;5023849;28;20409;-58
2022/03/17 08:16:31;;;;;;;13.18;4.25;;;3.60;99.90;;;;;;5024601;28;20042;-58
2022/03/17 08:19:08;;;;;;;12.73;2.88;;;3.70;99.90;;;;;;5003420;28;20058;-59
2022/03/17 08:21:36;;;;;;;25.85;2.90;;;3.90;99.90;;;;;;5020160;28;20400;-58
2022/03/17 08:24:04;;;;;;;14.13;3.08;;;4.00;99.90;;;;;;5029817;28;20049;-59
2022/03/17 08:26:32;;;;;;;7.97;2.13;;;4.10;99.90;;;;;;5030088;28;20057;-58
2022/03/17 08:29:00;;;;;;;13.25;2.85;;;4.20;99.90;;;;;;5016817;28;20496;-59
2022/03/17 08:31:28;;;;;;;16.27;3.63;;;4.30;99.90;;;;;;5027395;28;20045;-58
2022/03/17 08:33:56;;;;;;;12.45;2.65;;;4.40;99.90;;;;;;5024165;28;20041;-59
2022/03/17 08:36:25;;;;;;;11.68;3.15;;;4.60;99.90;;;;;;5022403;28;20056;-58
2022/03/17 08:38:53;;;;;;;7.45;2.13;;;4.70;99.90;;;;;;5026045;28;20505;-59
2022/03/17 08:41:21;;;;;;;12.27;1.83;;;4.70;99.90;;;;;;5027199;28;20485;-58
2022/03/17 08:43:51;;;;;;;11.82;1.95;;;4.80;99.90;;;;;;5027252;28;20050;-60
2022/03/17 08:49:18;;;;;;;8.10;2.00;;;5.00;99.90;;;;;;5011518;28;20070;-57
2022/03/17 08:51:47;;;;;;;16.27;2.75;;;5.00;99.90;;;;;;5019920;28;20054;-58
2022/03/17 08:54:15;;;;;;;7.10;1.73;;;5.20;99.90;;;;;;5002968;28;20549;-58
2022/03/17 08:56:43;;;;;;;10.15;2.15;;;5.20;99.90;;;;;;5014290;28;20042;-58
2022/03/17 08:59:11;;;;;;;10.00;2.13;;;5.30;99.90;;;;;;5014057;28;20049;-58
2022/03/17 09:01:39;;;;;;;5.55;1.95;;;5.50;99.90;;;;;;5020646;28;20050;-58
2022/03/17 09:04:07;;;;;;;10.05;1.45;;;5.50;99.90;;;;;;5029133;28;20421;-58
2022/03/17 09:06:38;;;;;;;13.25;2.33;;;5.60;99.90;;;;;;5012445;28;20057;-59
2022/03/17 09:09:06;;;;;;;17.20;2.25;;;5.70;99.90;;;;;;5004668;28;20041;-59
2022/03/17 09:11:34;;;;;;;12.00;1.85;;;5.80;99.90;;;;;;5025469;28;20042;-59
2022/03/17 09:14:08;;;;;;;6.93;1.50;;;5.90;99.90;;;;;;4996719;28;20057;-58
2022/03/17 09:16:35;;;;;;;7.18;1.35;;;6.00;99.90;;;;;;5010341;28;20054;-58
2022/03/17 09:19:03;;;;;;;5.10;1.23;;;6.10;99.90;;;;;;5019410;28;20046;-58
2022/03/17 09:21:31;;;;;;;5.18;1.42;;;6.20;99.90;;;;;;5028183;28;20046;-58
2022/03/17 09:24:00;;;;;;;6.22;1.38;;;6.30;99.90;;;;;;5029727;28;20061;-59
2022/03/17 09:26:27;;;;;;;4.25;1.25;;;6.40;99.90;;;;;;5027350;28;20041;-58
2022/03/17 09:28:55;;;;;;;5.03;1.05;;;6.40;99.90;;;;;;5024405;28;20065;-58
2022/03/17 09:31:23;;;;;;;7.38;1.80;;;6.50;99.90;;;;;;5021433;28;20075;-58
2022/03/17 09:33:51;;;;;;;6.72;0.80;;;6.60;99.90;;;;;;5006304;28;20052;-59
2022/03/17 09:36:19;;;;;;;6.03;1.08;;;6.60;99.90;;;;;;5018400;28;20405;-59
2022/03/17 09:41:35;;;;;;;5.35;0.82;;;6.80;99.90;;;;;;5014148;28;20038;-59
2022/03/17 09:44:03;;;;;;;4.78;0.80;;;6.90;99.90;;;;;;5026815;28;20397;-58
2022/03/17 09:46:31;;;;;;;1.67;0.80;;;7.10;99.90;;;;;;5010157;28;20041;-59
2022/03/17 09:49:01;;;;;;;6.22;0.93;;;7.10;99.90;;;;;;5021539;28;20042;-58
2022/03/17 09:51:29;;;;;;;5.75;1.52;;;7.20;99.90;;;;;;4999112;28;20041;-58
2022/03/17 09:54:00;;;;;;;4.57;0.95;;;7.30;99.90;;;;;;5025406;28;20045;-58
2022/03/17 09:56:28;;;;;;;5.18;1.13;;;7.40;99.90;;;;;;5017098;28;20709;-58
2022/03/17 09:58:58;;;;;;;9.60;1.10;;;7.40;99.90;;;;;;5023812;28;20057;-58
2022/03/17 10:01:26;;;;;;;10.50;1.10;;;7.40;99.90;;;;;;5027440;28;20052;-58
2022/03/17 10:04:02;;;;;;;5.38;0.98;;;7.40;99.90;;;;;;5024977;28;20049;-58
2022/03/17 10:06:30;;;;;;;8.95;2.08;;;7.50;99.90;;;;;;5017170;28;20049;-58
2022/03/17 10:08:59;;;;;;;1.90;0.80;;;7.50;99.90;;;;;;5024668;28;20405;-58
2022/03/17 10:11:31;;;;;;;3.65;0.63;;;7.60;99.90;;;;;;5019827;28;20041;-58
2022/03/17 10:14:05;;;;;;;1.95;0.60;;;7.70;99.90;;;;;;5028632;28;20046;-58
2022/03/17 10:16:33;;;;;;;3.88;0.52;;;7.80;99.90;;;;;;5024788;28;20420;-56
2022/03/17 10:19:04;;;;;;;4.43;1.08;;;7.90;99.90;;;;;;5027786;28;20448;-56
2022/03/17 10:21:32;;;;;;;2.38;0.55;;;8.00;99.90;;;;;;5027561;28;20053;-57
2022/03/17 10:24:08;;;;;;;4.88;1.27;;;8.20;99.90;;;;;;5025841;28;20418;-57
2022/03/17 10:26:47;;;;;;;3.55;0.82;;;8.40;99.90;;;;;;5004460;28;20041;-58
2022/03/17 10:29:25;;;;;;;5.00;0.75;;;8.60;99.90;;;;;;5028165;28;20045;-57
2022/03/17 10:32:01;;;;;;;6.93;0.60;;;8.90;99.90;;;;;;5016593;28;20065;-57
2022/03/17 10:34:55;;;;;;;2.97;0.60;;;9.20;99.90;;;;;;5011182;28;20063;-58
2022/03/17 10:37:24;;;;;;;6.07;1.40;;;9.50;99.90;;;;;;5025962;28;20045;-58
2022/03/17 10:39:54;;;;;;;5.78;1.60;;;9.50;99.90;;;;;;5025288;28;20921;-58
2022/03/17 10:42:25;;;;;;;;;;;9.50;99.90;;;;;;5015304;28;20052;-57
2022/03/17 10:44:58;;;;;;;3.95;0.90;;;9.50;99.90;;;;;;5024447;28;19921;-57
2022/03/17 10:47:37;;;;;;;8.75;0.85;;;9.50;99.90;;;;;;5008299;28;20049;-57
2022/03/17 10:50:15;;;;;;;1.75;0.38;;;9.50;99.90;;;;;;5022757;28;20046;-58
2022/03/17 10:52:49;;;;;;;7.60;1.20;;;9.50;99.90;;;;;;5027539;28;20041;-56
2022/03/17 10:55:25;;;;;;;5.65;0.60;;;9.50;99.90;;;;;;5024773;28;20064;-56
2022/03/17 10:58:12;;;;;;;3.03;1.50;;;9.50;99.90;;;;;;5023360;28;20052;-57
2022/03/17 11:00:52;;;;;;;4.25;0.57;;;9.50;99.90;;;;;;5027731;28;20041;-56
2022/03/17 11:03:22;;;;;;;5.47;0.50;;;9.50;99.90;;;;;;5012380;28;20045;-57
2022/03/17 11:05:53;;;;;;;2.05;0.47;;;9.80;99.90;;;;;;5024646;28;20041;-56
2022/03/17 11:08:21;;;;;;;4.03;0.63;;;9.60;99.90;;;;;;5023889;28;20041;-56
2022/03/17 11:10:49;;;;;;;2.03;0.22;;;9.70;99.90;;;;;;5024555;28;20049;-57
2022/03/17 11:13:19;;;;;;;4.85;0.80;;;9.80;99.90;;;;;;5024674;28;20056;-57
2022/03/17 11:16:06;;;;;;;2.08;0.47;;;9.90;99.90;;;;;;5027753;28;20057;-56
2022/03/17 11:18:40;;;;;;;3.88;0.60;;;10.10;99.90;;;;;;5026503;28;20042;-57
2022/03/17 11:21:16;;;;;;;4.28;0.45;;;10.20;99.90;;;;;;5021072;28;20578;-57
2022/03/17 11:23:56;;;;;;;6.75;0.50;;;10.40;99.90;;;;;;5007505;28;20060;-58
2022/03/17 11:26:28;;;;;;;4.60;0.63;;;10.60;99.90;;;;;;5004825;28;20516;-58
2022/03/17 11:29:24;;;;;;;3.88;0.52;;;10.80;99.90;;;;;;4999843;28;20513;-57
2022/03/17 11:31:56;;;;;;;4.18;0.93;;;11.00;99.90;;;;;;4988887;28;20057;-57
2022/03/17 11:34:47;;;;;;;6.20;1.45;;;11.10;99.90;;;;;;5024393;28;20041;-57
2022/03/17 11:37:27;;;;;;;7.97;1.20;;;11.30;99.90;;;;;;5024826;28;20532;-57
2022/03/17 11:40:05;;;;;;;1.15;0.30;;;11.50;99.90;;;;;;5027953;28;20046;-57
2022/03/17 11:42:52;;;;;;;5.75;0.73;;;11.80;99.90;;;;;;5027926;28;20064;-57
2022/03/17 11:45:20;;;;;;;4.78;0.82;;;11.90;99.90;;;;;;5010461;28;20066;-59
2022/03/17 11:47:49;;;;;;;4.15;0.75;;;12.00;99.90;;;;;;5012998;28;20045;-57
2022/03/17 11:50:36;;;;;;;6.05;1.02;;;12.10;99.90;;;;;;5028072;28;20509;-58
2022/03/17 11:53:07;;;;;;;6.20;1.45;;;12.10;99.90;;;;;;5027826;28;20049;-57
2022/03/17 11:55:48;;;;;;;2.25;0.40;;;12.00;99.90;;;;;;5027880;28;20050;-58
2022/03/17 11:58:16;;;;;;;2.60;0.60;;;11.90;99.90;;;;;;5030544;28;20045;-57
2022/03/17 12:00:47;;;;;;;4.38;0.93;;;11.70;99.90;;;;;;5012289;28;20046;-58
2022/03/17 12:03:26;;;;;;;4.45;0.77;;;11.60;99.90;;;;;;5004323;28;20072;-57
2022/03/17 12:06:14;;;;;;;3.97;0.50;;;11.70;99.90;;;;;;5031920;28;20049;-57
2022/03/17 12:08:52;;;;;;;1.20;0.38;;;11.90;99.90;;;;;;5030674;28;20065;-58
2022/03/17 12:11:22;;;;;;;3.25;1.08;;;12.00;99.90;;;;;;5031758;28;20046;-58
2022/03/17 12:14:14;;;;;;;2.35;0.52;;;12.20;99.90;;;;;;5027958;28;20042;-58
2022/03/17 12:17:08;;;;;;;5.65;0.50;;;12.80;99.90;;;;;;5011932;28;20057;-58
2022/03/17 12:19:35;;;;;;;2.85;0.38;;;13.20;99.90;;;;;;5024775;28;20046;-57
2022/03/17 12:22:05;;;;;;;4.55;0.50;;;13.20;99.90;;;;;;5031313;28;20061;-58
2022/03/17 12:24:39;;;;;;;1.30;0.28;;;13.00;99.90;;;;;;5031249;28;20076;-57
2022/03/17 12:27:13;;;;;;;4.13;0.38;;;12.60;99.90;;;;;;5028126;28;20053;-57
2022/03/17 12:29:42;;;;;;;2.58;0.50;;;12.30;99.90;;;;;;5018490;28;20206;-57
2022/03/17 12:32:16;;;;;;;5.30;0.50;;;12.10;99.90;;;;;;5009281;28;20053;-57
2022/03/17 12:34:49;;;;;;;3.97;0.35;;;11.90;99.90;;;;;;5027933;28;20112;-58
2022/03/17 12:37:18;;;;;;;1.20;0.05;;;11.80;99.90;;;;;;5029238;28;20064;-57
2022/03/17 12:39:51;;;;;;;3.03;0.55;;;11.70;99.90;;;;;;5031280;28;20045;-57
2022/03/17 12:42:24;;;;;;;3.15;0.77;;;11.60;99.90;;;;;;5009637;28;20041;-57
2022/03/17 12:45:07;;;;;;;3.00;0.22;;;11.60;99.90;;;;;;5017302;28;20053;-58
2022/03/17 12:47:38;;;;;;;2.10;0.25;;;11.50;99.90;;;;;;5013790;28;20053;-57
2022/03/17 12:50:11;;;;;;;4.65;0.35;;;11.40;99.90;;;;;;5031086;28;20045;-58
2022/03/17 12:52:42;;;;;;;2.65;0.52;;;11.50;99.90;;;;;;5030791;28;20046;-57
2022/03/17 12:55:12;;;;;;;3.72;0.50;;;11.40;99.90;;;;;;5013453;28;20042;-57
2022/03/17 12:57:41;;;;;;;8.38;0.60;;;11.40;99.90;;;;;;5028444;28;20121;-57
2022/03/17 13:00:12;;;;;;;1.70;0.30;;;11.30;99.90;;;;;;5015904;28;20045;-57
2022/03/17 13:02:47;;;;;;;6.47;0.75;;;11.30;99.90;;;;;;5014221;28;20050;-58
2022/03/17 13:08:06;;;;;;;7.47;0.67;;;11.30;99.90;;;;;;5030400;28;20049;-59
2022/03/17 13:16:11;;;;;;;3.65;0.85;;;11.40;99.90;;;;;;5011110;28;20058;-58
2022/03/17 13:18:49;;;;;;;2.40;0.30;;;11.50;99.90;;;;;;5004562;28;20620;-57
2022/03/17 13:21:19;;;;;;;4.30;0.50;;;11.70;99.90;;;;;;5012876;28;20041;-57
2022/03/17 13:23:48;;;;;;;1.40;0.47;;;11.80;99.90;;;;;;5012852;28;20053;-57
2022/03/17 13:26:24;;;;;;;3.65;0.35;;;11.90;99.90;;;;;;5030129;28;20045;-57
2022/03/17 13:29:01;;;;;;;3.40;0.90;;;11.80;99.90;;;;;;5024725;28;20424;-57
2022/03/17 13:31:40;;;;;;;4.95;0.60;;;11.70;99.90;;;;;;5029826;28;20049;-57
2022/03/17 13:34:07;;;;;;;5.85;0.47;;;11.60;99.90;;;;;;5029801;28;20049;-57
2022/03/17 13:37:12;;;;;;;6.60;0.90;;;11.50;99.90;;;;;;5029967;28;20405;-57